createdAt,value
2022-11-25T00:01:26.059Z,42.63
2022-11-25T00:04:11.343Z,41.90
2022-11-25T00:06:56.669Z,40.92
2022-11-25T00:09:42.169Z,40.20
2022-11-25T00:12:27.575Z,41.20
2022-11-25T00:15:13.019Z,42.55
2022-11-25T00:17:58.095Z,39.65
2022-11-25T00:20:43.570Z,43.95
2022-11-25T00:23:33.114Z,40.10
2022-11-25T00:26:19.488Z,41.03
2022-11-25T00:29:06.752Z,41.72
2022-11-25T00:31:54.138Z,44.40
2022-11-25T00:34:39.465Z,44.95
2022-11-25T00:37:26.439Z,45.95
2022-11-25T00:40:12.551Z,47.38
2022-11-25T00:43:16.336Z,50.13
2022-11-25T00:46:01.709Z,52.40
2022-11-25T00:48:46.910Z,51.88
2022-11-25T00:51:31.966Z,48.55
2022-11-25T00:54:17.492Z,50.00
2022-11-25T00:57:02.658Z,54.03
2022-11-25T00:59:49.222Z,51.05
2022-11-25T01:02:34.752Z,53.58
2022-11-25T01:05:20.209Z,53.85
2022-11-25T01:08:05.565Z,59.28
2022-11-25T01:10:58.574Z,65.60
2022-11-25T01:13:43.841Z,59.58
2022-11-25T01:16:30.003Z,71.22
2022-11-25T01:19:16.237Z,60.92
2022-11-25T01:22:01.610Z,61.58
2022-11-25T01:24:47.093Z,69.38
2022-11-25T01:27:33.270Z,68.30
2022-11-25T01:30:18.722Z,63.58
2022-11-25T01:33:03.911Z,63.70
2022-11-25T01:35:49.220Z,67.90
2022-11-25T01:38:35.364Z,71.18
2022-11-25T01:41:21.916Z,66.78
2022-11-25T01:44:12.342Z,62.70
2022-11-25T01:47:03.306Z,68.15
2022-11-25T01:50:02.422Z,67.53
2022-11-25T01:52:53.174Z,64.95
2022-11-25T01:55:42.825Z,63.08
2022-11-25T01:58:36.507Z,66.85
2022-11-25T02:01:22.460Z,63.72
2022-11-25T02:04:10.621Z,69.38
2022-11-25T02:07:03.646Z,61.55
2022-11-25T02:09:50.486Z,66.43
2022-11-25T02:12:38.697Z,65.18
2022-11-25T02:15:24.529Z,60.95
2022-11-25T02:18:10.116Z,63.63
2022-11-25T02:20:55.222Z,59.17
2022-11-25T02:23:59.040Z,62.55
2022-11-25T02:26:44.666Z,59.33
2022-11-25T02:29:30.239Z,72.38
2022-11-25T02:32:16.052Z,57.72
2022-11-25T02:35:01.156Z,64.78
2022-11-25T02:37:46.515Z,60.20
2022-11-25T02:40:36.318Z,58.50
2022-11-25T02:43:22.052Z,59.22
2022-11-25T02:46:11.073Z,50.83
2022-11-25T02:52:00.518Z,55.15
2022-11-25T02:54:47.641Z,57.17
2022-11-25T02:57:33.748Z,53.00
2022-11-25T03:00:19.559Z,55.08
2022-11-25T03:03:05.473Z,51.95
2022-11-25T03:05:50.754Z,53.85
2022-11-25T03:08:36.821Z,54.28
2022-11-25T03:11:45.708Z,57.53
2022-11-25T03:14:32.185Z,47.00
2022-11-25T03:17:17.528Z,52.85
2022-11-25T03:20:04.738Z,45.00
2022-11-25T03:22:50.742Z,47.10
2022-11-25T03:25:36.333Z,54.80
2022-11-25T03:28:23.189Z,49.80
2022-11-25T03:31:12.163Z,54.55
2022-11-25T03:33:57.833Z,52.95
2022-11-25T03:36:43.198Z,53.78
2022-11-25T03:39:29.444Z,51.78
2022-11-25T03:42:14.837Z,51.38
2022-11-25T03:45:01.081Z,51.33
2022-11-25T03:47:46.586Z,54.47
2022-11-25T03:50:31.968Z,49.47
2022-11-25T03:53:17.319Z,53.05
2022-11-25T03:56:02.961Z,50.00
2022-11-25T03:58:48.745Z,50.60
2022-11-25T04:01:41.489Z,47.33
2022-11-25T04:04:29.393Z,49.83
2022-11-25T04:07:14.676Z,53.85
2022-11-25T04:09:59.970Z,55.35
2022-11-25T04:12:48.233Z,52.25
2022-11-25T04:15:46.519Z,50.67
2022-11-25T04:18:32.420Z,58.10
2022-11-25T04:21:18.666Z,50.33
2022-11-25T04:24:03.797Z,51.63
2022-11-25T04:26:48.999Z,51.53
2022-11-25T04:29:34.339Z,48.15
2022-11-25T04:32:22.299Z,45.33
2022-11-25T04:35:08.397Z,43.72
2022-11-25T04:37:54.595Z,51.50
2022-11-25T04:40:41.101Z,50.35
2022-11-25T04:43:36.146Z,43.70
2022-11-25T04:46:40.875Z,42.42
2022-11-25T04:49:26.403Z,51.00
2022-11-25T04:52:11.877Z,51.47
2022-11-25T04:54:57.453Z,50.15
2022-11-25T04:57:42.558Z,49.60
2022-11-25T05:00:28.785Z,48.45
2022-11-25T05:03:15.715Z,43.58
2022-11-25T05:06:06.726Z,44.45
2022-11-25T05:08:53.741Z,53.42
2022-11-25T05:11:41.551Z,52.33
2022-11-25T05:14:26.950Z,57.58
2022-11-25T05:17:18.411Z,61.28
2022-11-25T05:20:04.768Z,46.13
2022-11-25T05:22:52.313Z,53.77
2022-11-25T05:25:40.449Z,55.67
2022-11-25T05:28:43.822Z,54.10
2022-11-25T05:31:30.355Z,60.80
2022-11-25T05:34:16.073Z,56.15
2022-11-25T05:37:02.747Z,56.90
2022-11-25T05:39:49.537Z,52.03
2022-11-25T05:42:43.663Z,49.45
2022-11-25T05:45:29.114Z,53.92
2022-11-25T05:48:16.035Z,51.40
2022-11-25T05:51:03.332Z,48.78
2022-11-25T05:53:49.835Z,45.55
2022-11-25T05:56:37.698Z,54.63
2022-11-25T05:59:46.046Z,52.78
2022-11-25T06:02:40.607Z,46.05
2022-11-25T06:05:27.315Z,42.60
2022-11-25T06:08:12.436Z,54.03
2022-11-25T06:10:58.187Z,46.40
2022-11-25T06:13:44.674Z,43.83
2022-11-25T06:16:30.429Z,37.50
2022-11-25T06:19:26.502Z,44.22
2022-11-25T06:22:12.024Z,42.20
2022-11-25T06:25:03.100Z,42.75
2022-11-25T06:28:11.835Z,43.60
2022-11-25T06:30:56.278Z,47.05
2022-11-25T06:33:54.733Z,46.17
2022-11-25T06:36:40.040Z,47.97
2022-11-25T06:39:25.479Z,47.40
2022-11-25T06:42:11.228Z,53.70
2022-11-25T06:44:56.173Z,42.40
2022-11-25T06:47:41.611Z,49.70
2022-11-25T06:50:27.002Z,45.17
2022-11-25T06:53:12.027Z,50.92
2022-11-25T06:56:05.294Z,42.08
2022-11-25T06:58:51.761Z,46.55
2022-11-25T07:01:37.114Z,44.35
2022-11-25T07:04:22.174Z,48.17
2022-11-25T07:07:07.688Z,47.85
2022-11-25T07:09:52.789Z,49.50
2022-11-25T07:12:38.419Z,43.80
2022-11-25T07:15:23.655Z,46.78
2022-11-25T07:18:09.129Z,44.38
2022-11-25T07:20:54.444Z,51.70
2022-11-25T07:23:40.562Z,52.97
2022-11-25T07:26:28.896Z,55.65
2022-11-25T07:32:22.631Z,47.58
2022-11-25T07:35:08.269Z,48.33
2022-11-25T07:37:53.568Z,48.72
2022-11-25T07:40:39.221Z,48.70
2022-11-25T07:43:24.707Z,53.40
2022-11-25T07:46:13.262Z,56.60
2022-11-25T07:49:02.020Z,50.20
2022-11-25T07:51:53.680Z,48.37
2022-11-25T07:54:38.808Z,46.35
2022-11-25T07:57:24.294Z,45.17
2022-11-25T08:00:10.320Z,47.20
2022-11-25T08:02:59.834Z,51.63
2022-11-25T08:05:45.381Z,50.33
2022-11-25T08:08:30.560Z,49.40
2022-11-25T08:11:22.476Z,40.45
2022-11-25T08:14:08.591Z,46.80
2022-11-25T08:16:54.332Z,48.40
2022-11-25T08:19:40.241Z,47.55
2022-11-25T08:22:25.578Z,43.60
2022-11-25T08:25:10.688Z,44.30
2022-11-25T08:27:55.903Z,47.97
2022-11-25T08:30:41.466Z,45.10
2022-11-25T08:33:26.787Z,46.15
2022-11-25T08:36:12.561Z,50.28
2022-11-25T08:38:59.958Z,43.47
2022-11-25T08:41:45.211Z,49.65
2022-11-25T08:44:30.714Z,45.92
2022-11-25T08:47:15.662Z,36.97
2022-11-25T08:50:01.368Z,44.63
2022-11-25T08:52:46.340Z,49.63
2022-11-25T08:55:32.665Z,49.88
2022-11-25T08:58:18.248Z,39.25
2022-11-25T09:01:04.784Z,40.05
2022-11-25T09:03:53.091Z,40.25
2022-11-25T09:06:38.869Z,40.70
2022-11-25T09:09:24.102Z,41.90
2022-11-25T09:12:09.768Z,47.85
2022-11-25T09:14:55.146Z,44.08
2022-11-25T09:17:40.492Z,50.83
2022-11-25T09:20:27.311Z,41.72
2022-11-25T09:23:13.078Z,48.53
2022-11-25T09:25:59.321Z,41.90
2022-11-25T09:28:44.712Z,50.70
2022-11-25T09:31:30.419Z,46.97
2022-11-25T09:34:15.536Z,44.92
2022-11-25T09:37:01.045Z,45.78
2022-11-25T09:39:46.141Z,44.03
2022-11-25T09:43:08.355Z,40.13
2022-11-25T09:46:18.376Z,45.70
2022-11-25T09:49:18.774Z,45.50
2022-11-25T09:52:04.363Z,48.42
2022-11-25T09:55:02.774Z,43.78
2022-11-25T09:58:03.333Z,51.28
2022-11-25T10:00:51.443Z,41.03
2022-11-25T10:03:43.221Z,35.78
2022-11-25T10:06:31.875Z,36.92
2022-11-25T10:09:23.833Z,36.13
2022-11-25T10:12:27.681Z,36.55
2022-11-25T10:15:21.066Z,36.60
2022-11-25T10:18:24.636Z,47.60
2022-11-25T10:21:11.587Z,41.90
2022-11-25T10:23:57.281Z,46.53
2022-11-25T10:26:45.279Z,49.53
2022-11-25T10:29:31.253Z,43.03
2022-11-25T10:32:24.436Z,44.78
2022-11-25T10:35:21.233Z,46.35
2022-11-25T10:38:19.030Z,50.85
2022-11-25T10:41:05.984Z,46.47
2022-11-25T10:43:51.599Z,51.83
2022-11-25T10:47:11.781Z,49.42
2022-11-25T10:50:19.771Z,54.13
2022-11-25T10:53:15.833Z,45.35
2022-11-25T10:56:04.559Z,51.22
2022-11-25T10:58:49.635Z,48.95
2022-11-25T11:01:35.356Z,51.83
2022-11-25T11:04:21.115Z,45.40
2022-11-25T11:07:09.390Z,44.95
2022-11-25T11:09:54.848Z,55.20
2022-11-25T11:12:59.031Z,49.95
2022-11-25T11:15:47.333Z,56.50
2022-11-25T11:18:38.837Z,56.22
2022-11-25T11:21:29.071Z,49.92
2022-11-25T11:24:35.712Z,51.15
2022-11-25T11:27:23.675Z,62.38
2022-11-25T11:30:15.586Z,55.17
2022-11-25T11:33:07.276Z,52.22
2022-11-25T11:36:09.897Z,52.42
2022-11-25T11:39:11.710Z,45.15
2022-11-25T11:42:14.006Z,39.83
2022-11-25T11:45:24.388Z,37.72
2022-11-25T11:48:13.265Z,47.17
2022-11-25T11:51:30.475Z,39.70
2022-11-25T11:54:23.969Z,46.83
2022-11-25T11:57:54.175Z,47.00
2022-11-25T12:00:58.015Z,42.67
2022-11-25T12:03:58.455Z,43.67
2022-11-25T12:06:53.792Z,45.17
2022-11-25T12:09:48.282Z,42.38
2022-11-25T12:13:01.990Z,37.85
2022-11-25T12:16:09.086Z,41.83
2022-11-25T12:19:21.016Z,47.80
2022-11-25T12:22:06.136Z,46.08
2022-11-25T12:25:13.935Z,48.65
2022-11-25T12:28:07.057Z,42.53
2022-11-25T12:31:05.309Z,45.10
2022-11-25T12:34:04.116Z,44.20
2022-11-25T12:36:49.725Z,44.58
2022-11-25T12:39:45.561Z,44.75
2022-11-25T12:42:33.512Z,47.30
2022-11-25T12:45:22.887Z,54.00
2022-11-25T12:48:11.799Z,53.47
2022-11-25T12:51:00.157Z,56.97
2022-11-25T12:54:17.642Z,53.42
2022-11-25T12:57:45.821Z,55.97
2022-11-25T13:01:07.118Z,50.40
2022-11-25T13:04:18.454Z,50.47
2022-11-25T13:07:33.296Z,47.63
2022-11-25T13:10:30.848Z,48.60
2022-11-25T13:13:55.188Z,47.55
2022-11-25T13:16:43.239Z,49.45
2022-11-25T13:19:29.153Z,50.88
2022-11-25T13:22:20.566Z,45.63
2022-11-25T13:25:24.497Z,54.90
2022-11-25T13:28:37.491Z,48.78
2022-11-25T13:31:24.260Z,54.78
2022-11-25T13:34:18.873Z,53.55
2022-11-25T13:37:43.322Z,54.92
2022-11-25T13:40:32.063Z,69.25
2022-11-25T13:43:22.496Z,63.25
2022-11-25T13:46:08.238Z,71.40
2022-11-25T13:48:53.696Z,68.97
2022-11-25T13:51:49.959Z,68.57
2022-11-25T13:54:43.497Z,65.13
2022-11-25T13:57:31.677Z,71.93
2022-11-25T14:00:20.091Z,71.57
2022-11-25T14:03:20.854Z,72.43
2022-11-25T14:06:32.539Z,83.68
2022-11-25T14:09:49.249Z,73.07
2022-11-25T14:13:16.578Z,88.07
2022-11-25T14:16:33.004Z,86.22
2022-11-25T14:19:50.687Z,85.55
2022-11-25T14:23:01.594Z,72.18
2022-11-25T14:25:53.574Z,76.55
2022-11-25T14:28:57.834Z,79.03
2022-11-25T14:31:47.168Z,78.47
2022-11-25T14:34:44.385Z,77.10
2022-11-25T14:37:46.266Z,71.85
2022-11-25T14:40:57.096Z,68.55
2022-11-25T14:43:48.819Z,64.88
2022-11-25T14:46:35.091Z,67.82
2022-11-25T14:52:36.471Z,66.32
2022-11-25T14:55:31.327Z,71.95
2022-11-25T14:58:17.530Z,67.30
2022-11-25T15:01:08.671Z,68.65
2022-11-25T15:04:04.871Z,68.43
2022-11-25T15:07:01.175Z,75.82
2022-11-25T15:10:03.393Z,78.68
2022-11-25T15:14:05.262Z,77.05
2022-11-25T15:16:57.896Z,71.97
2022-11-25T15:19:47.829Z,72.93
2022-11-25T15:22:34.018Z,78.18
2022-11-25T15:25:20.611Z,80.25
2022-11-25T15:28:21.371Z,73.72
2022-11-25T15:31:12.913Z,69.25
2022-11-25T15:34:07.722Z,77.28
2022-11-25T15:41:15.489Z,81.18
2022-11-25T15:44:04.105Z,81.00
2022-11-25T15:46:57.701Z,71.93
2022-11-25T15:49:49.212Z,72.45
2022-11-25T15:52:41.033Z,71.32
2022-11-25T15:55:39.818Z,84.43
2022-11-25T15:58:26.241Z,73.80
2022-11-25T16:01:18.156Z,69.60
2022-11-25T16:04:19.270Z,73.22
2022-11-25T16:07:23.570Z,71.45
2022-11-25T16:10:24.284Z,73.30
2022-11-25T16:13:23.041Z,65.18
2022-11-25T16:16:13.102Z,69.20
2022-11-25T16:19:01.962Z,70.22
2022-11-25T16:21:53.051Z,71.45
2022-11-25T16:24:50.674Z,70.18
2022-11-25T16:27:38.196Z,64.13
2022-11-25T16:30:23.785Z,65.45
2022-11-25T16:33:12.280Z,58.28
2022-11-25T16:35:57.471Z,67.45
2022-11-25T16:38:43.325Z,65.75
2022-11-25T16:41:29.882Z,59.25
2022-11-25T16:44:21.695Z,57.20
2022-11-25T16:47:10.654Z,60.80
2022-11-25T16:49:56.508Z,60.97
2022-11-25T16:52:42.456Z,54.47
2022-11-25T16:55:28.129Z,58.63
2022-11-25T16:58:24.248Z,54.55
2022-11-25T17:01:15.097Z,57.65
2022-11-25T17:04:00.903Z,53.38
2022-11-25T17:07:09.557Z,57.88
2022-11-25T17:09:51.937Z,47.15
2022-11-25T17:12:39.363Z,47.05
2022-11-25T17:15:32.332Z,45.50
2022-11-25T17:18:18.425Z,45.53
2022-11-25T17:21:04.003Z,53.35
2022-11-25T17:23:52.511Z,47.08
2022-11-25T17:26:42.816Z,50.20
2022-11-25T17:29:39.850Z,47.60
2022-11-25T17:32:26.411Z,46.90
2022-11-25T17:35:20.008Z,45.10
2022-11-25T17:38:13.071Z,42.20
2022-11-25T17:40:58.193Z,45.05
2022-11-25T17:43:44.747Z,44.30
2022-11-25T17:46:29.978Z,37.25
2022-11-25T17:49:15.606Z,40.75
2022-11-25T17:52:01.118Z,48.13
2022-11-25T17:54:46.503Z,45.65
2022-11-25T17:57:31.772Z,45.35
2022-11-25T18:00:20.386Z,46.78
2022-11-25T18:03:11.946Z,48.25
2022-11-25T18:05:57.615Z,44.97
2022-11-25T18:08:43.165Z,51.03
2022-11-25T18:11:28.401Z,52.83
2022-11-25T18:14:24.993Z,53.00
2022-11-25T18:17:16.544Z,52.15
2022-11-25T18:20:19.578Z,54.13
2022-11-25T18:23:04.717Z,49.80
2022-11-25T18:25:51.450Z,51.65
2022-11-25T18:28:37.578Z,50.97
2022-11-25T18:31:23.628Z,58.88
2022-11-25T18:34:16.154Z,55.58
2022-11-25T18:37:03.084Z,52.90
2022-11-25T18:39:48.169Z,50.65
2022-11-25T18:42:33.609Z,50.45
2022-11-25T18:45:36.576Z,49.70
2022-11-25T18:48:24.299Z,59.22
2022-11-25T18:51:12.095Z,61.28
2022-11-25T18:53:57.439Z,62.45
2022-11-25T18:56:43.527Z,47.83
2022-11-25T18:59:36.039Z,46.03
2022-11-25T19:02:21.395Z,46.88
2022-11-25T19:05:19.038Z,49.83
2022-11-25T19:08:04.673Z,45.80
2022-11-25T19:10:51.050Z,51.75
2022-11-25T19:13:37.029Z,43.17
2022-11-25T19:16:23.315Z,41.15
2022-11-25T19:19:14.175Z,46.03
2022-11-25T19:22:01.311Z,44.85
2022-11-25T19:24:46.881Z,43.95
2022-11-25T19:27:35.670Z,46.90
2022-11-25T19:30:24.370Z,49.55
2022-11-25T19:33:43.623Z,50.72
2022-11-25T19:36:32.012Z,43.00
2022-11-25T19:39:20.876Z,50.80
2022-11-25T19:42:06.401Z,46.78
2022-11-25T19:44:52.864Z,38.13
2022-11-25T19:47:38.140Z,35.90
2022-11-25T19:50:26.199Z,37.65
2022-11-25T19:53:22.179Z,37.55
2022-11-25T19:56:15.865Z,39.65
2022-11-25T19:59:01.074Z,39.63
2022-11-25T20:01:46.859Z,33.38
2022-11-25T20:04:31.786Z,32.83
2022-11-25T20:07:20.309Z,40.15
2022-11-25T20:10:19.841Z,28.73
2022-11-25T20:15:53.521Z,33.08
2022-11-25T20:18:39.357Z,29.50
2022-11-25T20:21:32.584Z,28.17
2022-11-25T20:24:19.741Z,31.98
2022-11-25T20:27:04.612Z,30.60
2022-11-25T20:29:49.929Z,35.25
2022-11-25T20:32:35.456Z,32.55
2022-11-25T20:35:22.485Z,32.47
2022-11-25T20:38:16.625Z,34.10
2022-11-25T20:41:02.319Z,32.17
2022-11-25T20:43:49.532Z,31.77
2022-11-25T20:46:34.679Z,35.78
2022-11-25T20:49:23.659Z,36.78
2022-11-25T20:52:18.940Z,29.38
2022-11-25T20:55:14.715Z,30.60
2022-11-25T20:57:59.913Z,33.33
2022-11-25T21:00:45.283Z,36.17
2022-11-25T21:03:30.380Z,26.42
2022-11-25T21:06:27.437Z,29.20
2022-11-25T21:09:23.327Z,26.45
2022-11-25T21:12:18.930Z,24.20
2022-11-25T21:15:13.355Z,23.95
2022-11-25T21:17:59.571Z,26.13
2022-11-25T21:20:45.095Z,24.85
2022-11-25T21:23:36.346Z,21.80
2022-11-25T21:26:25.483Z,22.00
2022-11-25T21:29:15.473Z,22.63
2022-11-25T21:32:00.590Z,22.48
2022-11-25T21:34:46.152Z,22.85
2022-11-25T21:37:38.121Z,20.88
2022-11-25T21:40:42.449Z,20.02
2022-11-25T21:43:32.387Z,22.35
2022-11-25T21:46:20.379Z,23.85
2022-11-25T21:49:11.538Z,19.80
2022-11-25T21:51:56.702Z,20.92
2022-11-25T21:54:42.226Z,21.42
2022-11-25T21:57:29.200Z,20.38
2022-11-25T22:00:32.507Z,24.88
2022-11-25T22:03:19.604Z,19.90
2022-11-25T22:06:16.247Z,21.85
2022-11-25T22:09:01.478Z,24.85
2022-11-25T22:11:50.177Z,27.35
2022-11-25T22:14:37.252Z,22.10
2022-11-25T22:17:23.014Z,22.25
2022-11-25T22:20:30.861Z,27.05
2022-11-25T22:23:19.389Z,22.35
2022-11-25T22:26:05.326Z,24.00
2022-11-25T22:28:51.946Z,21.30
2022-11-25T22:31:37.424Z,22.55
2022-11-25T22:34:24.367Z,21.52
2022-11-25T22:37:18.080Z,22.55
2022-11-25T22:40:03.206Z,24.40
2022-11-25T22:42:51.108Z,26.25
2022-11-25T22:45:36.674Z,23.83
2022-11-25T22:48:29.962Z,23.52
2022-11-25T22:51:19.959Z,23.55
2022-11-25T22:54:11.374Z,25.45
2022-11-25T22:56:57.162Z,20.38
2022-11-25T22:59:43.259Z,21.20
2022-11-25T23:02:34.150Z,18.60
2022-11-25T23:05:32.200Z,20.85
2022-11-25T23:08:23.955Z,20.55
2022-11-25T23:11:17.395Z,19.08
2022-11-25T23:14:03.075Z,21.58
2022-11-25T23:16:48.565Z,22.08
2022-11-25T23:19:33.945Z,24.38
2022-11-25T23:22:19.677Z,23.90
2022-11-25T23:25:11.697Z,24.50
2022-11-25T23:27:56.986Z,25.83
2022-11-25T23:31:02.967Z,30.58
2022-11-25T23:33:50.046Z,28.67
2022-11-25T23:36:48.178Z,37.13
2022-11-25T23:39:36.604Z,35.28
2022-11-25T23:42:21.548Z,38.92
2022-11-25T23:45:09.633Z,38.22
2022-11-25T23:47:56.824Z,35.38
2022-11-25T23:50:42.294Z,52.05
2022-11-25T23:53:33.117Z,40.47
2022-11-25T23:56:19.032Z,42.55
2022-11-25T23:59:11.946Z,48.85
